Nan — V4ND2 — position and weather

sailwx.info

Track history (hours):
 
Tides and Currents Weather Stations Pressure Air Temp Water Temp Dewpoint Dewpoint Depression Visibility Wind Speed Wind Dir Waves Ship Positions

Nan

Last reported at 2017-Oct-06 09:02 UTC. Time now 2017-Nov-20 17:08 UTC.
Position N 17°24' W 062°26'.
Warning: this ship's position is 45 days out of date.

Length 26 m; draft 9 m.

Type: Tug. MMSI: 341223000.

Date/timePositionNaut miles runAvg speedWind from/ knotsBaromVisibWave heightAir tempDewpointWater temp
2017-Oct-06 09:02N 17°24' W 062°26'2 5.4
2017-Oct-06 08:37N 17°23' W 062°24'1 5.3
2017-Oct-06 08:29N 17°23' W 062°23'3 5.2
2017-Oct-06 08:00N 17°22' W 062°21'3 5.5
2017-Oct-06 07:30N 17°21' W 062°18'3 5.6
2017-Oct-06 07:00N 17°19' W 062°16'3 5.5
2017-Oct-06 06:30N 17°18' W 062°13'3 5.7
2017-Oct-06 06:00N 17°17' W 062°11'3 5.7
2017-Oct-06 05:30N 17°15' W 062°08'3 5.4
2017-Oct-06 05:00N 17°14' W 062°06'3 5.3
2017-Oct-06 04:30N 17°13' W 062°03'3 5.3
2017-Oct-06 04:00N 17°12' W 062°01'3 5.2
2017-Oct-06 03:30N 17°10' W 061°58'3 5.3
2017-Oct-06 03:00N 17°09' W 061°56'3 5.3
2017-Oct-06 02:30N 17°08' W 061°53'2 4.1
2017-Oct-06 02:00N 17°07' W 061°51'0 0.3
2017-Oct-06 01:30N 17°07' W 061°51'0 0.0
2017-Oct-06 01:00N 17°07' W 061°51'0 0.0
2017-Oct-06 00:30N 17°07' W 061°51'0 0.0
2017-Oct-05 21:32N 17°07' W 061°51'0 0.0
2017-Oct-05 21:30N 17°07' W 061°51'2 3.6
2017-Oct-05 21:00N 17°09' W 061°52'0 0.9
2017-Oct-05 20:30N 17°09' W 061°53'0 0.9
2017-Oct-05 20:00N 17°09' W 061°52'2 3.7
2017-Oct-05 19:30N 17°07' W 061°51'0 0.0
2017-Oct-05 19:00N 17°07' W 061°51'0 0.3
2017-Oct-05 18:30N 17°07' W 061°51'0 0.0
2017-Oct-05 18:00N 17°07' W 061°51'0 0.0
2017-Oct-05 17:30N 17°07' W 061°51'0 0.0
2017-Oct-05 17:00N 17°07' W 061°51'0 0.0
2017-Oct-05 15:30N 17°07' W 061°51'0 0.3
2017-Oct-05 15:00N 17°07' W 061°51'0 0.0
2017-Oct-05 14:30N 17°07' W 061°51'0 0.0
2017-Oct-05 14:00N 17°07' W 061°51'0 0.0
2017-Oct-05 13:30N 17°07' W 061°51'0 0.0
2017-Oct-05 13:00N 17°07' W 061°51'0 0.0
2017-Oct-05 12:30N 17°07' W 061°51'0 0.0
2017-Oct-05 12:00N 17°07' W 061°51'0 0.0
2017-Oct-05 11:30N 17°07' W 061°51'0 0.0
2017-Oct-05 11:00N 17°07' W 061°51'0 0.0
2017-Oct-04 19:59N 17°07' W 061°51'0 0.0
2017-Oct-04 19:31N 17°07' W 061°51'0 0.0
2017-Oct-04 19:01N 17°07' W 061°51'0 0.0
2017-Oct-04 18:31N 17°07' W 061°51'0 0.0
2017-Oct-04 18:01N 17°07' W 061°51'0 0.0
2017-Oct-04 15:21N 17°07' W 061°51'0 0.0
2017-Oct-04 15:01N 17°07' W 061°51'0 0.0
2017-Oct-04 14:31N 17°07' W 061°51'0 0.0
2017-Oct-04 14:01N 17°07' W 061°51'0 0.0
2017-Oct-04 13:30N 17°07' W 061°51'0 0.0
2017-Oct-04 13:01N 17°07' W 061°51'0 0.0
2017-Oct-04 12:21N 17°07' W 061°51'0 0.0
2017-Oct-03 21:20N 17°07' W 061°51'0 0.0
2017-Oct-03 21:00N 17°07' W 061°51'0 0.0
2017-Oct-03 20:30N 17°07' W 061°51'0 0.0
2017-Oct-03 20:00N 17°07' W 061°51'0 0.0
2017-Oct-03 19:21N 17°07' W 061°51'0 0.0
2017-Oct-03 19:00N 17°07' W 061°51'0 0.0
2017-Oct-03 18:30N 17°07' W 061°51'0 0.1
2017-Oct-03 16:21N 17°08' W 061°51'0 0.0
2017-Oct-03 16:00N 17°08' W 061°51'0 0.0
2017-Oct-03 15:30N 17°08' W 061°51'0 0.0
2017-Oct-03 15:00N 17°08' W 061°51'1 1.3
2017-Oct-03 14:00N 17°08' W 061°52'1 1.0
2017-Oct-03 13:21N 17°09' W 061°52'0 0.0
2017-Oct-03 13:00N 17°09' W 061°52'1 2.5
2017-Oct-03 12:30N 17°08' W 061°52'1 0.1
2017-Oct-02 20:06N 17°07' W 061°51'0 0.1
2017-Oct-02 20:00N 17°07' W 061°51'0 0.1
2017-Oct-02 17:47N 17°07' W 061°51'0 0.0
2017-Oct-02 17:30N 17°07' W 061°51'0 0.1
2017-Oct-02 15:21N 17°07' W 061°51'1 3.8
2017-Oct-02 15:00N 17°08' W 061°52'1 2.4
2017-Oct-02 14:30N 17°09' W 061°52'1 1.1
2017-Oct-02 14:00N 17°08' W 061°52'2 3.2
2017-Oct-02 13:30N 17°07' W 061°51'0 0.1
2017-Oct-02 13:00N 17°07' W 061°51'0 0.0
2017-Oct-02 12:30N 17°07' W 061°51'0 0.0
2017-Oct-02 12:00N 17°07' W 061°51'0 0.0
2017-Oct-02 11:30N 17°07' W 061°51'0 0.0
2017-Oct-01 11:21N 17°07' W 061°51'0 0.0
2017-Sep-29 16:51N 17°07' W 061°51'0 0.0
2017-Sep-29 16:30N 17°07' W 061°51'0 0.0
2017-Sep-29 16:00N 17°07' W 061°51'0 0.0
2017-Sep-29 15:30N 17°07' W 061°51'0 0.0
2017-Sep-29 15:00N 17°07' W 061°51'0 0.0
2017-Sep-29 14:30N 17°07' W 061°51'0 0.0
2017-Sep-29 14:00N 17°07' W 061°51'0 0.0
2017-Sep-29 13:30N 17°07' W 061°51'0 0.0
2017-Sep-29 13:00N 17°07' W 061°51'0 0.0
2017-Sep-29 12:30N 17°07' W 061°51'0 0.0
2017-Sep-29 12:00N 17°07' W 061°51'0 0.0
2017-Sep-29 11:30N 17°07' W 061°51'0 0.0
2017-Sep-29 11:00N 17°07' W 061°51'0 0.0
2017-Sep-28 19:52N 17°07' W 061°51'0 0.0
2017-Sep-28 19:31N 17°07' W 061°51'0 0.0
2017-Sep-28 19:01N 17°07' W 061°51'0 0.0
2017-Sep-28 18:31N 17°07' W 061°51'0 0.0
2017-Sep-28 18:01N 17°07' W 061°51'0 0.0
2017-Sep-28 17:31N 17°07' W 061°51'0 0.0
2017-Sep-28 17:01N 17°07' W 061°51'0 0.0
2017-Sep-28 16:31N 17°07' W 061°51'0 0.0
2017-Sep-28 16:01N 17°07' W 061°51'0 0.0
2017-Sep-28 15:31N 17°07' W 061°51'0 0.0
2017-Sep-28 15:01N 17°07' W 061°51'0 0.0
2017-Sep-28 14:30N 17°07' W 061°51'0 0.0
2017-Sep-28 14:00N 17°07' W 061°51'0 0.0
2017-Sep-28 13:31N 17°07' W 061°51'0 0.0
2017-Sep-28 13:00N 17°07' W 061°51'0 0.0
2017-Sep-28 12:31N 17°07' W 061°51'0 0.0
2017-Sep-28 12:01N 17°07' W 061°51'0 0.0
2017-Sep-28 11:31N 17°07' W 061°51'0 0.0
2017-Sep-27 19:36N 17°07' W 061°51'0 0.0
2017-Sep-27 19:30N 17°07' W 061°51'0 0.0
2017-Sep-27 19:00N 17°07' W 061°51'0 0.0
2017-Sep-27 18:30N 17°07' W 061°51'2 4.4
2017-Sep-27 18:00N 17°08' W 061°53'0 0.2
2017-Sep-27 15:55N 17°08' W 061°53'0 0.2
2017-Sep-27 15:30N 17°08' W 061°53'2 4.2
2017-Sep-27 15:00N 17°07' W 061°51'0 0.1
2017-Sep-27 14:30N 17°07' W 061°51'0 0.1
2017-Sep-27 14:00N 17°07' W 061°51'0 0.2
2017-Sep-27 13:30N 17°07' W 061°51'2 3.7
2017-Sep-27 13:00N 17°08' W 061°53'2 4.4
2017-Sep-27 12:30N 17°10' W 061°51'2 4.8
2017-Sep-27 12:00N 17°11' W 061°49'2 4.7
2017-Sep-27 11:30N 17°09' W 061°47'2 4.4
2017-Sep-27 11:00N 17°07' W 061°46'0 0.7
2017-Sep-27 10:30N 17°07' W 061°46'0 0.5
2017-Sep-27 10:00N 17°07' W 061°46'4 7.2
2017-Sep-27 09:30N 17°10' W 061°48'4 7.9
2017-Sep-27 09:00N 17°10' W 061°52'3 5.5
2017-Sep-27 08:30N 17°07' W 061°51'0 0.0
2017-Sep-27 08:00N 17°07' W 061°51'0 0.0
2017-Sep-27 07:30N 17°07' W 061°51'0 0.0
2017-Sep-27 07:00N 17°07' W 061°51'0 0.0
2017-Sep-26 20:25N 17°07' W 061°51'0 0.0
2017-Sep-26 20:00N 17°07' W 061°51'0 0.0
2017-Sep-26 19:30N 17°07' W 061°51'0 0.0
2017-Sep-26 19:00N 17°07' W 061°51'0 0.0
2017-Sep-26 18:30N 17°07' W 061°51'0 0.0
2017-Sep-26 18:00N 17°07' W 061°51'0 0.0
2017-Sep-26 17:30N 17°07' W 061°51'0 0.0
2017-Sep-26 17:00N 17°07' W 061°51'0 0.0
2017-Sep-26 16:30N 17°07' W 061°51'0 0.0
2017-Sep-26 16:00N 17°07' W 061°51'0 0.0
2017-Sep-26 15:30N 17°07' W 061°51'0 0.0
2017-Sep-26 15:00N 17°07' W 061°51'0 0.0
2017-Sep-26 14:30N 17°07' W 061°51'0 0.0
2017-Sep-26 14:00N 17°07' W 061°51'0 0.0
2017-Sep-26 13:30N 17°07' W 061°51'0 0.0
2017-Sep-26 13:00N 17°07' W 061°51'0 0.0
2017-Sep-26 12:30N 17°07' W 061°51'0 0.0
2017-Sep-26 12:01N 17°07' W 061°51'0 0.0
2017-Sep-26 11:31N 17°07' W 061°51'  
Track history (hours):
 
Tides and Currents Weather Stations Pressure Air Temp Water Temp Dewpoint Dewpoint Depression Visibility Wind Speed Wind Dir Waves Ship Positions

Nan

Last reported at 2017-Oct-06 09:02 UTC. Time now 2017-Nov-20 17:08 UTC.
Position N 17°24' W 062°26'.
Warning: this ship's position is 45 days out of date.

Length 26 m; draft 9 m.

Type: Tug. MMSI: 341223000.

Date/timePositionNaut miles runAvg speedWind from/ knotsBaromVisibWave heightAir tempDewpointWater temp
2017-Oct-06 09:02N 17°24' W 062°26'2 5.4
2017-Oct-06 08:37N 17°23' W 062°24'1 5.3
2017-Oct-06 08:29N 17°23' W 062°23'3 5.2
2017-Oct-06 08:00N 17°22' W 062°21'3 5.5
2017-Oct-06 07:30N 17°21' W 062°18'3 5.6
2017-Oct-06 07:00N 17°19' W 062°16'3 5.5
2017-Oct-06 06:30N 17°18' W 062°13'3 5.7
2017-Oct-06 06:00N 17°17' W 062°11'3 5.7
2017-Oct-06 05:30N 17°15' W 062°08'3 5.4
2017-Oct-06 05:00N 17°14' W 062°06'3 5.3
2017-Oct-06 04:30N 17°13' W 062°03'3 5.3
2017-Oct-06 04:00N 17°12' W 062°01'3 5.2
2017-Oct-06 03:30N 17°10' W 061°58'3 5.3
2017-Oct-06 03:00N 17°09' W 061°56'3 5.3
2017-Oct-06 02:30N 17°08' W 061°53'2 4.1
2017-Oct-06 02:00N 17°07' W 061°51'0 0.3
2017-Oct-06 01:30N 17°07' W 061°51'0 0.0
2017-Oct-06 01:00N 17°07' W 061°51'0 0.0
2017-Oct-06 00:30N 17°07' W 061°51'0 0.0
2017-Oct-05 21:32N 17°07' W 061°51'0 0.0
2017-Oct-05 21:30N 17°07' W 061°51'2 3.6
2017-Oct-05 21:00N 17°09' W 061°52'0 0.9
2017-Oct-05 20:30N 17°09' W 061°53'0 0.9
2017-Oct-05 20:00N 17°09' W 061°52'2 3.7
2017-Oct-05 19:30N 17°07' W 061°51'0 0.0
2017-Oct-05 19:00N 17°07' W 061°51'0 0.3
2017-Oct-05 18:30N 17°07' W 061°51'0 0.0
2017-Oct-05 18:00N 17°07' W 061°51'0 0.0
2017-Oct-05 17:30N 17°07' W 061°51'0 0.0
2017-Oct-05 17:00N 17°07' W 061°51'0 0.0
2017-Oct-05 15:30N 17°07' W 061°51'0 0.3
2017-Oct-05 15:00N 17°07' W 061°51'0 0.0
2017-Oct-05 14:30N 17°07' W 061°51'0 0.0
2017-Oct-05 14:00N 17°07' W 061°51'0 0.0
2017-Oct-05 13:30N 17°07' W 061°51'0 0.0
2017-Oct-05 13:00N 17°07' W 061°51'0 0.0
2017-Oct-05 12:30N 17°07' W 061°51'0 0.0
2017-Oct-05 12:00N 17°07' W 061°51'0 0.0
2017-Oct-05 11:30N 17°07' W 061°51'0 0.0
2017-Oct-05 11:00N 17°07' W 061°51'0 0.0
2017-Oct-04 19:59N 17°07' W 061°51'0 0.0
2017-Oct-04 19:31N 17°07' W 061°51'0 0.0
2017-Oct-04 19:01N 17°07' W 061°51'0 0.0
2017-Oct-04 18:31N 17°07' W 061°51'0 0.0
2017-Oct-04 18:01N 17°07' W 061°51'0 0.0
2017-Oct-04 15:21N 17°07' W 061°51'0 0.0
2017-Oct-04 15:01N 17°07' W 061°51'0 0.0
2017-Oct-04 14:31N 17°07' W 061°51'0 0.0
2017-Oct-04 14:01N 17°07' W 061°51'0 0.0
2017-Oct-04 13:30N 17°07' W 061°51'0 0.0
2017-Oct-04 13:01N 17°07' W 061°51'0 0.0
2017-Oct-04 12:21N 17°07' W 061°51'0 0.0
2017-Oct-03 21:20N 17°07' W 061°51'0 0.0
2017-Oct-03 21:00N 17°07' W 061°51'0 0.0
2017-Oct-03 20:30N 17°07' W 061°51'0 0.0
2017-Oct-03 20:00N 17°07' W 061°51'0 0.0
2017-Oct-03 19:21N 17°07' W 061°51'0 0.0
2017-Oct-03 19:00N 17°07' W 061°51'0 0.0
2017-Oct-03 18:30N 17°07' W 061°51'0 0.1
2017-Oct-03 16:21N 17°08' W 061°51'0 0.0
2017-Oct-03 16:00N 17°08' W 061°51'0 0.0
2017-Oct-03 15:30N 17°08' W 061°51'0 0.0
2017-Oct-03 15:00N 17°08' W 061°51'1 1.3
2017-Oct-03 14:00N 17°08' W 061°52'1 1.0
2017-Oct-03 13:21N 17°09' W 061°52'0 0.0
2017-Oct-03 13:00N 17°09' W 061°52'1 2.5
2017-Oct-03 12:30N 17°08' W 061°52'1 0.1
2017-Oct-02 20:06N 17°07' W 061°51'0 0.1
2017-Oct-02 20:00N 17°07' W 061°51'0 0.1
2017-Oct-02 17:47N 17°07' W 061°51'0 0.0
2017-Oct-02 17:30N 17°07' W 061°51'0 0.1
2017-Oct-02 15:21N 17°07' W 061°51'1 3.8
2017-Oct-02 15:00N 17°08' W 061°52'1 2.4
2017-Oct-02 14:30N 17°09' W 061°52'1 1.1
2017-Oct-02 14:00N 17°08' W 061°52'2 3.2
2017-Oct-02 13:30N 17°07' W 061°51'0 0.1
2017-Oct-02 13:00N 17°07' W 061°51'0 0.0
2017-Oct-02 12:30N 17°07' W 061°51'0 0.0
2017-Oct-02 12:00N 17°07' W 061°51'0 0.0
2017-Oct-02 11:30N 17°07' W 061°51'0 0.0
2017-Oct-01 11:21N 17°07' W 061°51'0 0.0
2017-Sep-29 16:51N 17°07' W 061°51'0 0.0
2017-Sep-29 16:30N 17°07' W 061°51'0 0.0
2017-Sep-29 16:00N 17°07' W 061°51'0 0.0
2017-Sep-29 15:30N 17°07' W 061°51'0 0.0
2017-Sep-29 15:00N 17°07' W 061°51'0 0.0
2017-Sep-29 14:30N 17°07' W 061°51'0 0.0
2017-Sep-29 14:00N 17°07' W 061°51'0 0.0
2017-Sep-29 13:30N 17°07' W 061°51'0 0.0
2017-Sep-29 13:00N 17°07' W 061°51'0 0.0
2017-Sep-29 12:30N 17°07' W 061°51'0 0.0
2017-Sep-29 12:00N 17°07' W 061°51'0 0.0
2017-Sep-29 11:30N 17°07' W 061°51'0 0.0
2017-Sep-29 11:00N 17°07' W 061°51'0 0.0
2017-Sep-28 19:52N 17°07' W 061°51'0 0.0
2017-Sep-28 19:31N 17°07' W 061°51'0 0.0
2017-Sep-28 19:01N 17°07' W 061°51'0 0.0
2017-Sep-28 18:31N 17°07' W 061°51'0 0.0
2017-Sep-28 18:01N 17°07' W 061°51'0 0.0
2017-Sep-28 17:31N 17°07' W 061°51'0 0.0
2017-Sep-28 17:01N 17°07' W 061°51'0 0.0
2017-Sep-28 16:31N 17°07' W 061°51'0 0.0
2017-Sep-28 16:01N 17°07' W 061°51'0 0.0
2017-Sep-28 15:31N 17°07' W 061°51'0 0.0
2017-Sep-28 15:01N 17°07' W 061°51'0 0.0
2017-Sep-28 14:30N 17°07' W 061°51'0 0.0
2017-Sep-28 14:00N 17°07' W 061°51'0 0.0
2017-Sep-28 13:31N 17°07' W 061°51'0 0.0
2017-Sep-28 13:00N 17°07' W 061°51'0 0.0
2017-Sep-28 12:31N 17°07' W 061°51'0 0.0
2017-Sep-28 12:01N 17°07' W 061°51'0 0.0
2017-Sep-28 11:31N 17°07' W 061°51'0 0.0
2017-Sep-27 19:36N 17°07' W 061°51'0 0.0
2017-Sep-27 19:30N 17°07' W 061°51'0 0.0
2017-Sep-27 19:00N 17°07' W 061°51'0 0.0
2017-Sep-27 18:30N 17°07' W 061°51'2 4.4
2017-Sep-27 18:00N 17°08' W 061°53'0 0.2
2017-Sep-27 15:55N 17°08' W 061°53'0 0.2
2017-Sep-27 15:30N 17°08' W 061°53'2 4.2
2017-Sep-27 15:00N 17°07' W 061°51'0 0.1
2017-Sep-27 14:30N 17°07' W 061°51'0 0.1
2017-Sep-27 14:00N 17°07' W 061°51'0 0.2
2017-Sep-27 13:30N 17°07' W 061°51'2 3.7
2017-Sep-27 13:00N 17°08' W 061°53'2 4.4
2017-Sep-27 12:30N 17°10' W 061°51'2 4.8
2017-Sep-27 12:00N 17°11' W 061°49'2 4.7
2017-Sep-27 11:30N 17°09' W 061°47'2 4.4
2017-Sep-27 11:00N 17°07' W 061°46'0 0.7
2017-Sep-27 10:30N 17°07' W 061°46'0 0.5
2017-Sep-27 10:00N 17°07' W 061°46'4 7.2
2017-Sep-27 09:30N 17°10' W 061°48'4 7.9
2017-Sep-27 09:00N 17°10' W 061°52'3 5.5
2017-Sep-27 08:30N 17°07' W 061°51'0 0.0
2017-Sep-27 08:00N 17°07' W 061°51'0 0.0
2017-Sep-27 07:30N 17°07' W 061°51'0 0.0
2017-Sep-27 07:00N 17°07' W 061°51'0 0.0
2017-Sep-26 20:25N 17°07' W 061°51'0 0.0
2017-Sep-26 20:00N 17°07' W 061°51'0 0.0
2017-Sep-26 19:30N 17°07' W 061°51'0 0.0
2017-Sep-26 19:00N 17°07' W 061°51'0 0.0
2017-Sep-26 18:30N 17°07' W 061°51'0 0.0
2017-Sep-26 18:00N 17°07' W 061°51'0 0.0
2017-Sep-26 17:30N 17°07' W 061°51'0 0.0
2017-Sep-26 17:00N 17°07' W 061°51'0 0.0
2017-Sep-26 16:30N 17°07' W 061°51'0 0.0
2017-Sep-26 16:00N 17°07' W 061°51'0 0.0
2017-Sep-26 15:30N 17°07' W 061°51'0 0.0
2017-Sep-26 15:00N 17°07' W 061°51'0 0.0
2017-Sep-26 14:30N 17°07' W 061°51'0 0.0
2017-Sep-26 14:00N 17°07' W 061°51'0 0.0
2017-Sep-26 13:30N 17°07' W 061°51'0 0.0
2017-Sep-26 13:00N 17°07' W 061°51'0 0.0
2017-Sep-26 12:30N 17°07' W 061°51'0 0.0
2017-Sep-26 12:01N 17°07' W 061°51'0 0.0
2017-Sep-26 11:31N 17°07' W 061°51'  

Dump ship's entire track history